Погода Агуас-ди-Линдояна неделю

Сан-Паулу, Бразилия

17 - 23 июля
  • 17июля
    Сегодня
    +11°
    +25°
    Ясно и безоблачно
    ВремяПогодаТемператураВлажностьДавлениеВетер, м/сВероятность осадков
    00:00Ясно и безоблачно+14°C89 %691 мм1.6 м/с5 %
    03:00Ясно и безоблачно+12°C91 %690 мм1.7 м/с5 %
    06:00Ясно и безоблачно+11°C89 %690 мм1.6 м/с5 %
    09:00Ясно и безоблачно+17°C66 %693 мм1.2 м/с5 %
    12:00Ясно и безоблачно+23°C44 %693 мм1.5 м/с5 %
    15:00Ясно и безоблачно+24°C40 %691 мм2.7 м/с3 %
    18:00Ясно и безоблачно+21°C63 %690 мм1.7 м/с5 %
    21:00Ясно и безоблачно+17°C78 %690 мм1.2 м/с5 %
  • 18июля
    Четверг
    +9°
    +26°
    Ясно и безоблачно
    ВремяПогодаТемператураВлажностьДавлениеВетер, м/сВероятность осадков
    00:00Ясно и безоблачно+14°C88 %690 мм1.3 м/с5 %
    03:00Ясно и безоблачно+12°C92 %688 мм1.6 м/с5 %
    06:00Ясно и безоблачно+12°C92 %688 мм1.8 м/с5 %
    09:00Ясно и безоблачно+16°C65 %691 мм1.0 м/с5 %
    12:00Ясно и безоблачно+23°C36 %691 мм0.2 м/с5 %
    15:00Ясно и безоблачно+25°C36 %690 мм0.8 м/с5 %
    18:00Ясно и безоблачно+21°C59 %690 мм1.9 м/с5 %
    21:00Ясно и безоблачно+16°C72 %690 мм2.5 м/с5 %
  • 19июля
    Пятница
    +11°
    +26°
    Ясно и безоблачно
    ВремяПогодаТемператураВлажностьДавлениеВетер, м/сВероятность осадков
    00:00Ясно и безоблачно+13°C87 %690 мм1.5 м/с5 %
    03:00Практически безоблачно+11°C91 %689 мм1.8 м/с5 %
    06:00Практически безоблачно+11°C89 %689 мм1.8 м/с5 %
    09:00Ясно и безоблачно+16°C69 %692 мм1.6 м/с5 %
    12:00Ясно и безоблачно+24°C39 %693 мм0.8 м/с5 %
    15:00Ясно и безоблачно+26°C37 %692 мм1.5 м/с5 %
    18:00Ясно и безоблачно+22°C58 %691 мм1.9 м/с5 %
    21:00Ясно и безоблачно+17°C80 %691 мм1.5 м/с5 %
  • 20июля
    Суббота
    +13°
    +27°
    Ясно и безоблачно
    ВремяПогодаТемператураВлажностьДавлениеВетер, м/сВероятность осадков
    00:00Ясно и безоблачно+14°C92 %690 мм1.4 м/с5 %
    03:00Ясно и безоблачно+13°C90 %689 мм1.7 м/с5 %
    06:00Ясно и безоблачно+12°C90 %689 мм1.6 м/с5 %
    09:00Ясно и безоблачно+17°C68 %691 мм1.3 м/с5 %
    12:00Ясно и безоблачно+25°C40 %692 мм0.5 м/с5 %
    15:00Ясно и безоблачно+27°C39 %691 мм1.7 м/с5 %
    18:00Ясно и безоблачно+22°C58 %690 мм1.7 м/с5 %
    21:00Ясно и безоблачно+17°C79 %689 мм1.3 м/с5 %
  • 21июля
    Воскресенье
    +14°
    +27°
    Ясно и безоблачно
    ВремяПогодаТемператураВлажностьДавлениеВетер, м/сВероятность осадков
    00:00Ясно и безоблачно+14°C90 %689 мм1.7 м/с5 %
    03:00Ясно и безоблачно+13°C87 %688 мм1.9 м/с5 %
    06:00Ясно и безоблачно+13°C86 %689 мм2.6 м/с5 %
    09:00Ясно и безоблачно+17°C64 %690 мм2.9 м/с5 %
    12:00Ясно и безоблачно+24°C42 %691 мм2.2 м/с5 %
    15:00Ясно и безоблачно+27°C36 %690 мм0.8 м/с5 %
    18:00Ясно и безоблачно+23°C54 %689 мм0.9 м/с5 %
    21:00Ясно и безоблачно+16°C69 %689 мм1.2 м/с5 %
Мы используем cookies
Соглашаюсь